sensor_id;sensor_type;location;lat;lon;timestamp;pressure;altitude;pressure_sealevel;temperature;humidity
55032;BME280;40928;51.076;7.950;2022-08-19T00:02:04;96873.00;;;14.85;94.98
55032;BME280;40928;51.076;7.950;2022-08-19T00:04:33;96866.56;;;14.86;94.96
55032;BME280;40928;51.076;7.950;2022-08-19T00:07:03;96873.00;;;14.85;95.02
55032;BME280;40928;51.076;7.950;2022-08-19T00:09:29;96869.50;;;14.85;94.89
55032;BME280;40928;51.076;7.950;2022-08-19T00:11:55;96874.34;;;14.88;95.22
55032;BME280;40928;51.076;7.950;2022-08-19T00:14:22;96874.06;;;14.89;95.18
55032;BME280;40928;51.076;7.950;2022-08-19T00:16:49;96875.97;;;14.89;95.37
55032;BME280;40928;51.076;7.950;2022-08-19T00:19:16;96873.81;;;14.91;95.30
55032;BME280;40928;51.076;7.950;2022-08-19T00:21:42;96867.91;;;14.89;95.23
55032;BME280;40928;51.076;7.950;2022-08-19T00:24:10;96863.59;;;14.88;95.38
55032;BME280;40928;51.076;7.950;2022-08-19T00:26:36;96865.75;;;14.86;95.33
55032;BME280;40928;51.076;7.950;2022-08-19T00:29:03;96866.81;;;14.85;95.26
55032;BME280;40928;51.076;7.950;2022-08-19T00:31:29;96864.13;;;14.85;95.29
55032;BME280;40928;51.076;7.950;2022-08-19T00:33:56;96869.78;;;14.83;95.09
55032;BME280;40928;51.076;7.950;2022-08-19T00:36:22;96861.97;;;14.82;95.09
55032;BME280;40928;51.076;7.950;2022-08-19T00:38:48;96859.84;;;14.79;95.07
55032;BME280;40928;51.076;7.950;2022-08-19T00:41:14;96859.31;;;14.76;95.14
55032;BME280;40928;51.076;7.950;2022-08-19T00:43:40;96853.41;;;14.74;95.67
55032;BME280;40928;51.076;7.950;2022-08-19T00:46:06;96859.84;;;14.73;95.87
55032;BME280;40928;51.076;7.950;2022-08-19T00:48:33;96855.81;;;14.71;95.78
55032;BME280;40928;51.076;7.950;2022-08-19T00:50:59;96866.03;;;14.69;96.08
55032;BME280;40928;51.076;7.950;2022-08-19T00:53:27;96854.97;;;14.65;96.14
55032;BME280;40928;51.076;7.950;2022-08-19T00:55:56;96856.56;;;14.66;96.42
55032;BME280;40928;51.076;7.950;2022-08-19T00:58:26;96856.56;;;14.66;96.53
55032;BME280;40928;51.076;7.950;2022-08-19T01:00:54;96859.84;;;14.68;96.60
55032;BME280;40928;51.076;7.950;2022-08-19T01:03:20;96855.28;;;14.69;96.72
55032;BME280;40928;51.076;7.950;2022-08-19T01:05:47;96855.28;;;14.69;96.66
55032;BME280;40928;51.076;7.950;2022-08-19T01:08:16;96856.06;;;14.69;96.67
55032;BME280;40928;51.076;7.950;2022-08-19T01:10:45;96855.00;;;14.70;96.64
55032;BME280;40928;51.076;7.950;2022-08-19T01:13:14;96845.81;;;14.66;96.69
55032;BME280;40928;51.076;7.950;2022-08-19T01:15:52;96846.91;;;14.65;96.74
55032;BME280;40928;51.076;7.950;2022-08-19T01:18:20;96831.84;;;14.64;96.71
55032;BME280;40928;51.076;7.950;2022-08-19T01:20:46;96828.38;;;14.64;96.63
55032;BME280;40928;51.076;7.950;2022-08-19T01:23:13;96830.25;;;14.63;96.99
55032;BME280;40928;51.076;7.950;2022-08-19T01:25:45;96833.75;;;14.64;96.87
55032;BME280;40928;51.076;7.950;2022-08-19T01:28:17;96846.09;;;14.65;96.84
55032;BME280;40928;51.076;7.950;2022-08-19T01:30:43;96839.13;;;14.64;96.86
55032;BME280;40928;51.076;7.950;2022-08-19T01:33:09;96832.13;;;14.62;96.98
55032;BME280;40928;51.076;7.950;2022-08-19T01:35:35;96838.03;;;14.59;97.22
55032;BME280;40928;51.076;7.950;2022-08-19T01:38:04;96845.31;;;14.59;97.33
55032;BME280;40928;51.076;7.950;2022-08-19T01:40:35;96843.16;;;14.56;97.42
55032;BME280;40928;51.076;7.950;2022-08-19T01:43:02;96841.00;;;14.53;97.35
55032;BME280;40928;51.076;7.950;2022-08-19T01:45:29;96842.06;;;14.52;97.47
55032;BME280;40928;51.076;7.950;2022-08-19T01:47:56;96835.38;;;14.49;97.62
55032;BME280;40928;51.076;7.950;2022-08-19T01:50:22;96831.84;;;14.49;98.08
55032;BME280;40928;51.076;7.950;2022-08-19T01:52:47;96836.72;;;14.46;98.03
55032;BME280;40928;51.076;7.950;2022-08-19T01:55:17;96820.84;;;14.45;98.10
55032;BME280;40928;51.076;7.950;2022-08-19T01:57:50;96822.75;;;14.44;98.03
55032;BME280;40928;51.076;7.950;2022-08-19T02:00:19;96830.81;;;14.44;98.07
55032;BME280;40928;51.076;7.950;2022-08-19T02:02:45;96830.25;;;14.42;98.18
55032;BME280;40928;51.076;7.950;2022-08-19T02:05:11;96826.50;;;14.43;98.05
55032;BME280;40928;51.076;7.950;2022-08-19T02:07:39;96835.63;;;14.42;98.03
55032;BME280;40928;51.076;7.950;2022-08-19T02:10:09;96825.13;;;14.41;97.82
55032;BME280;40928;51.076;7.950;2022-08-19T02:12:35;96828.09;;;14.39;98.01
55032;BME280;40928;51.076;7.950;2022-08-19T02:15:02;96830.00;;;14.39;98.11
55032;BME280;40928;51.076;7.950;2022-08-19T02:17:28;96823.81;;;14.38;98.06
55032;BME280;40928;51.076;7.950;2022-08-19T02:19:58;96811.97;;;14.34;98.21
55032;BME280;40928;51.076;7.950;2022-08-19T02:22:24;96813.03;;;14.33;98.22
55032;BME280;40928;51.076;7.950;2022-08-19T02:24:53;96815.22;;;14.31;98.25
55032;BME280;40928;51.076;7.950;2022-08-19T02:27:19;96810.38;;;14.28;98.34
55032;BME280;40928;51.076;7.950;2022-08-19T02:29:48;96800.44;;;14.23;98.53
55032;BME280;40928;51.076;7.950;2022-08-19T02:32:16;96806.88;;;14.27;98.47
55032;BME280;40928;51.076;7.950;2022-08-19T02:34:42;96798.28;;;14.25;98.40
55032;BME280;40928;51.076;7.950;2022-08-19T02:37:07;96803.13;;;14.23;98.71
55032;BME280;40928;51.076;7.950;2022-08-19T02:39:56;96814.66;;;14.19;99.01
55032;BME280;40928;51.076;7.950;2022-08-19T02:42:22;96816.00;;;14.16;98.98
55032;BME280;40928;51.076;7.950;2022-08-19T02:44:47;96820.56;;;14.15;99.33
55032;BME280;40928;51.076;7.950;2022-08-19T02:47:13;96817.88;;;14.15;99.28
55032;BME280;40928;51.076;7.950;2022-08-19T02:49:40;96822.97;;;14.17;99.00
55032;BME280;40928;51.076;7.950;2022-08-19T02:52:06;96822.97;;;14.17;99.25
55032;BME280;40928;51.076;7.950;2022-08-19T02:54:32;96814.66;;;14.13;99.26
55032;BME280;40928;51.076;7.950;2022-08-19T02:56:57;96820.03;;;14.13;99.21
55032;BME280;40928;51.076;7.950;2022-08-19T02:59:23;96825.66;;;14.12;99.20
55032;BME280;40928;51.076;7.950;2022-08-19T03:01:50;96828.91;;;14.09;99.21
55032;BME280;40928;51.076;7.950;2022-08-19T03:04:16;96828.34;;;14.07;99.19
55032;BME280;40928;51.076;7.950;2022-08-19T03:06:45;96828.34;;;14.07;99.00
55032;BME280;40928;51.076;7.950;2022-08-19T03:09:11;96828.06;;;14.03;98.95
55032;BME280;40928;51.076;7.950;2022-08-19T03:11:37;96824.28;;;14.04;99.00
55032;BME280;40928;51.076;7.950;2022-08-19T03:14:05;96815.97;;;14.00;99.12
55032;BME280;40928;51.076;7.950;2022-08-19T03:16:34;96815.44;;;13.98;99.34
55032;BME280;40928;51.076;7.950;2022-08-19T03:19:00;96818.13;;;13.98;99.43
55032;BME280;40928;51.076;7.950;2022-08-19T03:21:29;96815.97;;;13.95;99.14
55032;BME280;40928;51.076;7.950;2022-08-19T03:23:57;96822.16;;;13.96;99.06
55032;BME280;40928;51.076;7.950;2022-08-19T03:26:23;96816.22;;;13.94;99.09
55032;BME280;40928;51.076;7.950;2022-08-19T03:28:48;96814.06;;;13.91;99.11
55032;BME280;40928;51.076;7.950;2022-08-19T03:31:17;96817.03;;;13.89;99.09
55032;BME280;40928;51.076;7.950;2022-08-19T03:33:43;96828.56;;;13.84;99.25
55032;BME280;40928;51.076;7.950;2022-08-19T03:38:37;96831.25;;;13.84;99.47
55032;BME280;40928;51.076;7.950;2022-08-19T03:41:05;96826.13;;;13.83;99.45
55032;BME280;40928;51.076;7.950;2022-08-19T03:43:33;96835.25;;;13.77;99.69
55032;BME280;40928;51.076;7.950;2022-08-19T03:46:07;96839.00;;;13.76;99.94
55032;BME280;40928;51.076;7.950;2022-08-19T03:48:34;96847.31;;;13.74;99.71
55032;BME280;40928;51.076;7.950;2022-08-19T03:51:00;96848.38;;;13.73;99.91
55032;BME280;40928;51.076;7.950;2022-08-19T03:53:28;96844.06;;;13.72;99.73
55032;BME280;40928;51.076;7.950;2022-08-19T03:55:54;96843.28;;;13.72;99.66
55032;BME280;40928;51.076;7.950;2022-08-19T03:58:21;96847.31;;;13.69;99.63
55032;BME280;40928;51.076;7.950;2022-08-19T04:00:47;96859.13;;;13.68;99.65
55032;BME280;40928;51.076;7.950;2022-08-19T04:03:13;96856.44;;;13.68;99.47
55032;BME280;40928;51.076;7.950;2022-08-19T04:05:38;96849.16;;;13.68;99.40
55032;BME280;40928;51.076;7.950;2022-08-19T04:08:04;96855.09;;;13.70;99.27
55032;BME280;40928;51.076;7.950;2022-08-19T04:10:35;96852.41;;;13.70;98.88
55032;BME280;40928;51.076;7.950;2022-08-19T04:13:02;96860.19;;;13.67;98.75
55032;BME280;40928;51.076;7.950;2022-08-19T04:15:27;96852.94;;;13.62;98.79
55032;BME280;40928;51.076;7.950;2022-08-19T04:17:56;96863.34;;;13.59;98.95
55032;BME280;40928;51.076;7.950;2022-08-19T04:20:22;96874.09;;;13.59;98.80
55032;BME280;40928;51.076;7.950;2022-08-19T04:22:47;96864.13;;;13.54;98.58
55032;BME280;40928;51.076;7.950;2022-08-19T04:25:13;96860.91;;;13.52;98.74
55032;BME280;40928;51.076;7.950;2022-08-19T04:27:38;96854.75;;;13.51;98.78
55032;BME280;40928;51.076;7.950;2022-08-19T04:30:04;96856.06;;;13.49;98.87
55032;BME280;40928;51.076;7.950;2022-08-19T04:32:30;96852.88;;;13.52;98.90
55032;BME280;40928;51.076;7.950;2022-08-19T04:34:57;96863.31;;;13.48;99.66
55032;BME280;40928;51.076;7.950;2022-08-19T04:37:25;96860.34;;;13.50;99.30
55032;BME280;40928;51.076;7.950;2022-08-19T04:39:52;96862.25;;;13.49;99.41
55032;BME280;40928;51.076;7.950;2022-08-19T04:42:36;96862.81;;;13.51;99.04
55032;BME280;40928;51.076;7.950;2022-08-19T04:45:10;96862.81;;;13.51;98.83
55032;BME280;40928;51.076;7.950;2022-08-19T04:47:37;96853.41;;;13.54;98.82
55032;BME280;40928;51.076;7.950;2022-08-19T04:50:04;96862.28;;;13.54;98.58
55032;BME280;40928;51.076;7.950;2022-08-19T04:52:30;96862.28;;;13.54;98.56
55032;BME280;40928;51.076;7.950;2022-08-19T04:54:57;96865.75;;;13.55;98.61
55032;BME280;40928;51.076;7.950;2022-08-19T04:57:22;96864.41;;;13.58;98.51
55032;BME280;40928;51.076;7.950;2022-08-19T04:59:48;96865.78;;;13.60;98.32
55032;BME280;40928;51.076;7.950;2022-08-19T05:02:14;96865.25;;;13.63;97.92
55032;BME280;40928;51.076;7.950;2022-08-19T05:04:39;96870.09;;;13.61;98.33
55032;BME280;40928;51.076;7.950;2022-08-19T05:07:07;96869.53;;;13.59;98.53
55032;BME280;40928;51.076;7.950;2022-08-19T05:09:33;96879.44;;;13.59;98.90
55032;BME280;40928;51.076;7.950;2022-08-19T05:11:59;96882.69;;;13.61;98.97
55032;BME280;40928;51.076;7.950;2022-08-19T05:14:25;96886.19;;;13.66;99.01
55032;BME280;40928;51.076;7.950;2022-08-19T05:16:51;96892.66;;;13.70;98.87
55032;BME280;40928;51.076;7.950;2022-08-19T05:19:16;96884.34;;;13.77;98.92
55032;BME280;40928;51.076;7.950;2022-08-19T05:22:00;96890.31;;;13.84;98.68
55032;BME280;40928;51.076;7.950;2022-08-19T05:24:44;96888.16;;;13.92;99.27
55032;BME280;40928;51.076;7.950;2022-08-19T05:27:10;96889.53;;;13.99;98.96
55032;BME280;40928;51.076;7.950;2022-08-19T05:29:35;96872.63;;;14.04;98.76
55032;BME280;40928;51.076;7.950;2022-08-19T05:32:03;96871.31;;;14.07;99.13
55032;BME280;40928;51.076;7.950;2022-08-19T05:34:30;96880.44;;;14.11;99.48
55032;BME280;40928;51.076;7.950;2022-08-19T05:36:58;96877.75;;;14.16;99.62
55032;BME280;40928;51.076;7.950;2022-08-19T05:39:27;96885.84;;;14.21;99.96
55032;BME280;40928;51.076;7.950;2022-08-19T05:42:03;96890.94;;;14.28;100.00
55032;BME280;40928;51.076;7.950;2022-08-19T05:44:31;96885.03;;;14.36;99.64
55032;BME280;40928;51.076;7.950;2022-08-19T05:46:58;96890.16;;;14.43;99.60
55032;BME280;40928;51.076;7.950;2022-08-19T05:49:25;96884.25;;;14.51;99.80
55032;BME280;40928;51.076;7.950;2022-08-19T05:51:52;96891.53;;;14.61;99.84
55032;BME280;40928;51.076;7.950;2022-08-19T05:54:19;96889.94;;;14.70;99.62
55032;BME280;40928;51.076;7.950;2022-08-19T05:56:45;96888.31;;;14.80;100.00
55032;BME280;40928;51.076;7.950;2022-08-19T05:59:14;96880.25;;;14.90;99.65
55032;BME280;40928;51.076;7.950;2022-08-19T06:01:44;96885.09;;;14.98;99.82
55032;BME280;40928;51.076;7.950;2022-08-19T06:04:11;96878.88;;;15.08;99.54
55032;BME280;40928;51.076;7.950;2022-08-19T06:06:37;96870.28;;;15.16;100.00
55032;BME280;40928;51.076;7.950;2022-08-19T06:09:05;96874.81;;;15.26;99.82
55032;BME280;40928;51.076;7.950;2022-08-19T06:14:11;96879.88;;;15.48;100.00
55032;BME280;40928;51.076;7.950;2022-08-19T06:16:38;96873.38;;;15.60;100.00
55032;BME280;40928;51.076;7.950;2022-08-19T06:19:08;96862.31;;;15.72;100.00
55032;BME280;40928;51.076;7.950;2022-08-19T06:21:37;96862.78;;;15.84;99.77
55032;BME280;40928;51.076;7.950;2022-08-19T06:24:05;96857.59;;;15.98;99.49
55032;BME280;40928;51.076;7.950;2022-08-19T06:26:33;96861.03;;;16.14;99.43
55032;BME280;40928;51.076;7.950;2022-08-19T06:28:59;96862.81;;;16.29;99.75
55032;BME280;40928;51.076;7.950;2022-08-19T06:31:28;96863.53;;;16.45;99.90
55032;BME280;40928;51.076;7.950;2022-08-19T06:33:54;96861.78;;;16.65;100.00
55032;BME280;40928;51.076;7.950;2022-08-19T06:36:28;96861.06;;;16.83;99.45
55032;BME280;40928;51.076;7.950;2022-08-19T06:38:58;96859.63;;;16.96;99.25
55032;BME280;40928;51.076;7.950;2022-08-19T06:41:25;96870.31;;;17.07;98.94
55032;BME280;40928;51.076;7.950;2022-08-19T06:43:51;96867.78;;;17.15;98.86
55032;BME280;40928;51.076;7.950;2022-08-19T06:46:17;96854.78;;;17.23;98.85
55032;BME280;40928;51.076;7.950;2022-08-19T06:48:46;96858.75;;;17.30;98.70
55032;BME280;40928;51.076;7.950;2022-08-19T06:51:16;96858.41;;;17.37;98.55
55032;BME280;40928;51.076;7.950;2022-08-19T06:53:48;96871.25;;;17.45;97.95
55032;BME280;40928;51.076;7.950;2022-08-19T06:56:20;96878.22;;;17.52;97.80
55032;BME280;40928;51.076;7.950;2022-08-19T06:58:46;96880.56;;;17.58;97.87
55032;BME280;40928;51.076;7.950;2022-08-19T07:01:13;96886.66;;;17.69;97.65
55032;BME280;40928;51.076;7.950;2022-08-19T07:03:39;96887.88;;;17.82;95.99
55032;BME280;40928;51.076;7.950;2022-08-19T07:06:11;96900.41;;;17.92;95.91
55032;BME280;40928;51.076;7.950;2022-08-19T07:08:38;96903.91;;;17.98;95.12
55032;BME280;40928;51.076;7.950;2022-08-19T07:11:10;96903.84;;;18.03;94.86
55032;BME280;40928;51.076;7.950;2022-08-19T07:13:36;96909.69;;;18.10;94.13
55032;BME280;40928;51.076;7.950;2022-08-19T07:16:14;96920.41;;;18.15;93.61
55032;BME280;40928;51.076;7.950;2022-08-19T07:18:40;96915.25;;;18.19;93.28
55032;BME280;40928;51.076;7.950;2022-08-19T07:21:09;96916.25;;;18.23;93.16
55032;BME280;40928;51.076;7.950;2022-08-19T07:23:35;96916.19;;;18.28;93.00
55032;BME280;40928;51.076;7.950;2022-08-19T07:26:06;96918.59;;;18.30;92.28
55032;BME280;40928;51.076;7.950;2022-08-19T07:28:32;96923.16;;;18.34;92.23
55032;BME280;40928;51.076;7.950;2022-08-19T07:30:58;96923.59;;;18.41;91.91
55032;BME280;40928;51.076;7.950;2022-08-19T07:33:23;96930.22;;;18.49;91.60
55032;BME280;40928;51.076;7.950;2022-08-19T07:35:49;96934.47;;;18.55;91.42
55032;BME280;40928;51.076;7.950;2022-08-19T07:38:15;96935.50;;;18.60;91.29
55032;BME280;40928;51.076;7.950;2022-08-19T07:40:42;96945.97;;;18.66;90.79
55032;BME280;40928;51.076;7.950;2022-08-19T07:43:08;96937.16;;;18.75;90.70
55032;BME280;40928;51.076;7.950;2022-08-19T07:45:34;96948.34;;;18.87;89.67
55032;BME280;40928;51.076;7.950;2022-08-19T07:48:00;96946.31;;;18.98;89.13
55032;BME280;40928;51.076;7.950;2022-08-19T07:50:26;96948.56;;;19.10;88.58
55032;BME280;40928;51.076;7.950;2022-08-19T07:52:51;96946.19;;;19.22;88.30
55032;BME280;40928;51.076;7.950;2022-08-19T07:55:20;96951.41;;;19.32;87.30
55032;BME280;40928;51.076;7.950;2022-08-19T07:57:46;96941.50;;;19.42;86.83
55032;BME280;40928;51.076;7.950;2022-08-19T08:00:12;96945.25;;;19.46;86.32
55032;BME280;40928;51.076;7.950;2022-08-19T08:02:38;96949.53;;;19.47;86.28
55032;BME280;40928;51.076;7.950;2022-08-19T08:05:05;96955.75;;;19.47;86.40
55032;BME280;40928;51.076;7.950;2022-08-19T08:07:48;96949.63;;;19.42;86.35
55032;BME280;40928;51.076;7.950;2022-08-19T08:10:32;96956.16;;;19.41;86.23
55032;BME280;40928;51.076;7.950;2022-08-19T08:12:59;96944.31;;;19.37;87.20
55032;BME280;40928;51.076;7.950;2022-08-19T08:15:24;96951.84;;;19.40;86.46
55032;BME280;40928;51.076;7.950;2022-08-19T08:17:50;96948.94;;;19.50;85.66
55032;BME280;40928;51.076;7.950;2022-08-19T08:20:15;96940.66;;;19.60;84.56
55032;BME280;40928;51.076;7.950;2022-08-19T08:22:45;96945.66;;;19.81;84.13
55032;BME280;40928;51.076;7.950;2022-08-19T08:25:29;96949.47;;;19.80;81.63
55032;BME280;40928;51.076;7.950;2022-08-19T08:27:56;96952.31;;;19.89;81.78
55032;BME280;40928;51.076;7.950;2022-08-19T08:30:26;96951.31;;;19.99;81.90
55032;BME280;40928;51.076;7.950;2022-08-19T08:32:53;96947.19;;;20.15;81.18
55032;BME280;40928;51.076;7.950;2022-08-19T08:35:21;96942.03;;;20.28;80.34
55032;BME280;40928;51.076;7.950;2022-08-19T08:37:54;96932.16;;;20.46;78.63
55032;BME280;40928;51.076;7.950;2022-08-19T08:40:53;96936.94;;;20.63;77.41
55032;BME280;40928;51.076;7.950;2022-08-19T08:45:56;96945.13;;;20.86;75.25
55032;BME280;40928;51.076;7.950;2022-08-19T08:48:32;96944.75;;;21.01;75.54
55032;BME280;40928;51.076;7.950;2022-08-19T08:51:02;96944.06;;;21.18;74.51
55032;BME280;40928;51.076;7.950;2022-08-19T08:53:30;96946.88;;;21.36;74.23
55032;BME280;40928;51.076;7.950;2022-08-19T08:55:56;96948.53;;;21.45;73.24
55032;BME280;40928;51.076;7.950;2022-08-19T08:58:31;96949.66;;;21.44;72.68
55032;BME280;40928;51.076;7.950;2022-08-19T09:01:09;96944.16;;;21.36;73.03
55032;BME280;40928;51.076;7.950;2022-08-19T09:03:37;96941.09;;;21.28;71.85
55032;BME280;40928;51.076;7.950;2022-08-19T09:06:44;96941.63;;;21.39;71.38
55032;BME280;40928;51.076;7.950;2022-08-19T09:09:26;96939.94;;;21.52;67.69
55032;BME280;40928;51.076;7.950;2022-08-19T09:15:09;96937.00;;;21.71;66.93
55032;BME280;40928;51.076;7.950;2022-08-19T09:17:36;96930.78;;;21.71;68.05
55032;BME280;40928;51.076;7.950;2022-08-19T09:20:14;96935.56;;;21.74;66.74
55032;BME280;40928;51.076;7.950;2022-08-19T09:22:41;96945.78;;;21.68;65.37
55032;BME280;40928;51.076;7.950;2022-08-19T09:25:12;96930.94;;;21.74;65.47
55032;BME280;40928;51.076;7.950;2022-08-19T09:27:39;96931.97;;;21.96;64.67
55032;BME280;40928;51.076;7.950;2022-08-19T09:30:06;96926.28;;;22.24;63.56
55032;BME280;40928;51.076;7.950;2022-08-19T09:32:33;96927.47;;;22.58;62.77
55032;BME280;40928;51.076;7.950;2022-08-19T09:34:59;96921.72;;;22.60;60.39
55032;BME280;40928;51.076;7.950;2022-08-19T09:37:25;96923.59;;;22.94;60.24
55032;BME280;40928;51.076;7.950;2022-08-19T09:39:51;96931.44;;;23.05;59.17
55032;BME280;40928;51.076;7.950;2022-08-19T09:42:17;96934.97;;;22.88;59.49
55032;BME280;40928;51.076;7.950;2022-08-19T09:44:43;96935.00;;;22.70;60.61
55032;BME280;40928;51.076;7.950;2022-08-19T09:47:11;96932.91;;;22.58;60.36
55032;BME280;40928;51.076;7.950;2022-08-19T09:49:37;96933.72;;;22.50;60.58
55032;BME280;40928;51.076;7.950;2022-08-19T09:52:05;96927.47;;;22.49;59.59
55032;BME280;40928;51.076;7.950;2022-08-19T09:54:33;96942.94;;;22.31;58.53
55032;BME280;40928;51.076;7.950;2022-08-19T09:56:59;96933.25;;;22.65;58.69
55032;BME280;40928;51.076;7.950;2022-08-19T09:59:28;96927.75;;;23.18;56.87
55032;BME280;40928;51.076;7.950;2022-08-19T10:01:55;96925.28;;;23.52;55.76
55032;BME280;40928;51.076;7.950;2022-08-19T10:04:21;96922.63;;;23.25;54.50
55032;BME280;40928;51.076;7.950;2022-08-19T10:06:47;96928.53;;;23.27;54.51
55032;BME280;40928;51.076;7.950;2022-08-19T10:09:15;96929.63;;;23.44;53.82
55032;BME280;40928;51.076;7.950;2022-08-19T10:11:43;96923.69;;;24.20;52.56
55032;BME280;40928;51.076;7.950;2022-08-19T10:14:08;96931.31;;;24.99;50.75
55032;BME280;40928;51.076;7.950;2022-08-19T10:16:36;96924.88;;;25.16;47.97
55032;BME280;40928;51.076;7.950;2022-08-19T10:19:02;96923.56;;;25.34;48.24
55032;BME280;40928;51.076;7.950;2022-08-19T10:21:31;96920.94;;;25.38;46.06
55032;BME280;40928;51.076;7.950;2022-08-19T10:23:59;96916.56;;;26.08;45.41
55032;BME280;40928;51.076;7.950;2022-08-19T10:26:30;96909.41;;;26.16;44.73
55032;BME280;40928;51.076;7.950;2022-08-19T10:28:56;96907.75;;;26.39;45.34
55032;BME280;40928;51.076;7.950;2022-08-19T10:31:30;96908.91;;;25.51;46.78
55032;BME280;40928;51.076;7.950;2022-08-19T10:33:56;96921.25;;;25.24;48.02
55032;BME280;40928;51.076;7.950;2022-08-19T10:36:32;96922.16;;;25.16;47.79
55032;BME280;40928;51.076;7.950;2022-08-19T10:39:00;96914.97;;;25.94;46.21
55032;BME280;40928;51.076;7.950;2022-08-19T10:41:29;96912.78;;;26.90;44.45
55032;BME280;40928;51.076;7.950;2022-08-19T10:43:58;96913.09;;;27.46;43.33
55032;BME280;40928;51.076;7.950;2022-08-19T10:46:26;96908.56;;;28.37;41.39
55032;BME280;40928;51.076;7.950;2022-08-19T10:48:52;96907.16;;;29.02;39.39
55032;BME280;40928;51.076;7.950;2022-08-19T10:51:18;96898.69;;;29.11;39.46
55032;BME280;40928;51.076;7.950;2022-08-19T10:54:03;96895.88;;;28.49;39.94
55032;BME280;40928;51.076;7.950;2022-08-19T10:56:28;96899.44;;;28.14;39.48
55032;BME280;40928;51.076;7.950;2022-08-19T10:59:14;96883.38;;;27.48;41.13
55032;BME280;40928;51.076;7.950;2022-08-19T11:01:44;96888.00;;;27.95;40.27
55032;BME280;40928;51.076;7.950;2022-08-19T11:04:10;96898.78;;;28.04;40.90
55032;BME280;40928;51.076;7.950;2022-08-19T11:06:42;96896.25;;;27.47;41.47
55032;BME280;40928;51.076;7.950;2022-08-19T11:09:09;96893.00;;;26.97;42.49
55032;BME280;40928;51.076;7.950;2022-08-19T11:11:36;96887.56;;;26.44;42.74
55032;BME280;40928;51.076;7.950;2022-08-19T11:14:06;96892.28;;;25.94;42.98
55032;BME280;40928;51.076;7.950;2022-08-19T11:16:33;96890.34;;;25.57;43.44
55032;BME280;40928;51.076;7.950;2022-08-19T11:18:59;96892.53;;;25.89;43.72
55032;BME280;40928;51.076;7.950;2022-08-19T11:21:28;96892.88;;;25.99;43.62
55032;BME280;40928;51.076;7.950;2022-08-19T11:23:58;96884.09;;;25.81;43.86
55032;BME280;40928;51.076;7.950;2022-08-19T11:26:26;96888.09;;;25.59;42.84
55032;BME280;40928;51.076;7.950;2022-08-19T11:28:51;96892.94;;;25.41;43.59
55032;BME280;40928;51.076;7.950;2022-08-19T11:31:21;96893.19;;;25.02;45.64
55032;BME280;40928;51.076;7.950;2022-08-19T11:33:48;96888.19;;;24.71;46.27
55032;BME280;40928;51.076;7.950;2022-08-19T11:36:19;96884.16;;;24.68;46.62
55032;BME280;40928;51.076;7.950;2022-08-19T11:38:48;96877.28;;;25.17;45.83
55032;BME280;40928;51.076;7.950;2022-08-19T11:41:16;96870.53;;;25.97;44.20
55032;BME280;40928;51.076;7.950;2022-08-19T11:43:42;96875.88;;;27.00;42.34
55032;BME280;40928;51.076;7.950;2022-08-19T11:46:13;96876.81;;;26.51;42.56
55032;BME280;40928;51.076;7.950;2022-08-19T11:48:40;96869.59;;;26.06;43.04
55032;BME280;40928;51.076;7.950;2022-08-19T11:51:08;96878.16;;;26.04;43.81
55032;BME280;40928;51.076;7.950;2022-08-19T11:53:35;96870.47;;;26.47;43.63
55032;BME280;40928;51.076;7.950;2022-08-19T11:56:02;96876.25;;;26.86;42.83
55032;BME280;40928;51.076;7.950;2022-08-19T11:58:28;96877.34;;;26.98;42.71
55032;BME280;40928;51.076;7.950;2022-08-19T12:00:55;96876.88;;;26.96;42.74
55032;BME280;40928;51.076;7.950;2022-08-19T12:03:21;96867.69;;;26.19;43.16
55032;BME280;40928;51.076;7.950;2022-08-19T12:05:47;96871.56;;;26.05;43.81
55032;BME280;40928;51.076;7.950;2022-08-19T12:08:13;96862.78;;;25.87;44.07
55032;BME280;40928;51.076;7.950;2022-08-19T12:10:40;96868.72;;;25.64;44.65
55032;BME280;40928;51.076;7.950;2022-08-19T12:13:07;96877.22;;;25.38;45.08
55032;BME280;40928;51.076;7.950;2022-08-19T12:15:39;96872.78;;;25.00;45.92
55032;BME280;40928;51.076;7.950;2022-08-19T12:18:08;96866.75;;;24.94;45.65
55032;BME280;40928;51.076;7.950;2022-08-19T12:20:37;96869.38;;;24.69;46.16
55032;BME280;40928;51.076;7.950;2022-08-19T12:23:04;96869.09;;;24.62;46.63
55032;BME280;40928;51.076;7.950;2022-08-19T12:25:29;96864.34;;;24.80;46.06
55032;BME280;40928;51.076;7.950;2022-08-19T12:27:56;96861.16;;;25.36;45.69
55032;BME280;40928;51.076;7.950;2022-08-19T12:30:22;96858.22;;;25.91;44.12
55032;BME280;40928;51.076;7.950;2022-08-19T12:32:47;96850.03;;;26.44;43.44
55032;BME280;40928;51.076;7.950;2022-08-19T12:35:13;96857.16;;;26.90;43.19
55032;BME280;40928;51.076;7.950;2022-08-19T12:37:39;96859.56;;;26.92;42.37
55032;BME280;40928;51.076;7.950;2022-08-19T12:40:07;96862.19;;;26.59;42.26
55032;BME280;40928;51.076;7.950;2022-08-19T12:42:33;96859.88;;;26.33;43.35
55032;BME280;40928;51.076;7.950;2022-08-19T12:45:00;96852.31;;;26.14;43.77
55032;BME280;40928;51.076;7.950;2022-08-19T12:47:25;96854.69;;;26.03;43.38
55032;BME280;40928;51.076;7.950;2022-08-19T12:49:52;96852.63;;;26.00;43.44
55032;BME280;40928;51.076;7.950;2022-08-19T12:52:17;96845.53;;;26.24;43.44
55032;BME280;40928;51.076;7.950;2022-08-19T12:54:46;96839.16;;;26.60;42.33
55032;BME280;40928;51.076;7.950;2022-08-19T12:57:11;96835.41;;;26.81;41.62
55032;BME280;40928;51.076;7.950;2022-08-19T12:59:38;96835.16;;;26.58;42.22
55032;BME280;40928;51.076;7.950;2022-08-19T13:02:07;96825.94;;;26.79;42.49
55032;BME280;40928;51.076;7.950;2022-08-19T13:04:34;96825.59;;;26.80;42.91
55032;BME280;40928;51.076;7.950;2022-08-19T13:07:06;96832.44;;;26.86;43.24
55032;BME280;40928;51.076;7.950;2022-08-19T13:09:33;96837.53;;;26.88;43.32
55032;BME280;40928;51.076;7.950;2022-08-19T13:11:59;96837.38;;;26.81;43.24
55032;BME280;40928;51.076;7.950;2022-08-19T13:14:28;96831.31;;;26.75;42.97
55032;BME280;40928;51.076;7.950;2022-08-19T13:16:55;96841.63;;;26.66;42.34